Time;durP1;ratioP1;P1;durP2;ratioP2;P2;SDS_P1;SDS_P2;PMS_P1;PMS_P2;Temp;Humidity;BMP_temperature;BMP_pressure;BME280_temperature;BME280_humidity;BME280_pressure;Samples;Min_cycle;Max_cycle;Signal;HPM_P1;HPM_P2
2023/07/23 00:01:27;;;;;;;2.30;2.05;;;29.40;51.50;;;;;;5033985;28;20030;-81
2023/07/23 00:03:53;;;;;;;3.33;2.40;;;29.40;51.60;;;;;;5033809;28;20108;-82
2023/07/23 00:06:19;;;;;;;2.20;2.00;;;29.40;51.60;;;;;;5031591;28;20048;-85
2023/07/23 00:08:45;;;;;;;2.92;2.28;;;29.40;51.70;;;;;;5033726;28;20496;-83
2023/07/23 00:11:11;;;;;;;5.40;2.90;;;29.40;51.70;;;;;;5034282;28;20033;-84
2023/07/23 00:13:37;;;;;;;2.72;2.00;;;29.40;51.70;;;;;;5034022;28;20088;-79
2023/07/23 00:16:04;;;;;;;2.45;2.05;;;29.50;51.80;;;;;;5033759;28;20017;-79
2023/07/23 00:18:29;;;;;;;2.72;2.33;;;29.50;51.90;;;;;;5033671;28;20041;-79
2023/07/23 00:20:55;;;;;;;4.50;2.33;;;29.40;51.90;;;;;;5033751;28;20829;-79
2023/07/23 00:23:21;;;;;;;3.45;2.08;;;29.50;51.90;;;;;;5048961;28;20053;-79
2023/07/23 00:25:47;;;;;;;2.22;2.00;;;29.50;52.00;;;;;;5032185;28;20128;-79
2023/07/23 00:28:13;;;;;;;2.50;2.10;;;29.50;52.00;;;;;;5033490;28;20116;-79
2023/07/23 00:30:39;;;;;;;2.65;2.05;;;29.50;52.00;;;;;;5032008;28;20036;-79
2023/07/23 00:33:05;;;;;;;2.83;1.77;;;29.40;52.10;;;;;;5048772;28;20033;-79
2023/07/23 00:35:31;;;;;;;2.22;2.03;;;29.50;52.20;;;;;;5050901;28;20460;-79
2023/07/23 00:37:58;;;;;;;2.33;2.05;;;29.40;52.30;;;;;;5050588;28;20052;-79
2023/07/23 00:40:24;;;;;;;2.20;1.83;;;29.40;52.30;;;;;;5050840;28;20497;-79
2023/07/23 00:42:50;;;;;;;3.05;2.25;;;29.40;52.30;;;;;;5050017;28;20044;-79
2023/07/23 00:45:16;;;;;;;3.90;2.08;;;29.40;52.40;;;;;;5033671;28;20073;-79
2023/07/23 00:47:43;;;;;;;3.13;2.42;;;29.60;52.40;;;;;;5050147;28;20044;-79
2023/07/23 00:50:10;;;;;;;3.15;2.47;;;29.40;52.40;;;;;;5050614;28;20369;-79
2023/07/23 00:52:36;;;;;;;3.00;2.50;;;29.40;52.40;;;;;;5017331;28;20052;-78
2023/07/23 00:55:02;;;;;;;2.13;2.00;;;29.30;52.50;;;;;;5050437;28;20064;-79
2023/07/23 00:57:28;;;;;;;3.85;2.55;;;29.50;52.50;;;;;;5050374;28;20055;-79
2023/07/23 00:59:56;;;;;;;2.38;2.17;;;29.40;52.50;;;;;;5050259;28;20121;-79
2023/07/23 01:02:26;;;;;;;2.78;2.13;;;29.40;52.60;;;;;;5050392;28;20558;-79
2023/07/23 01:04:53;;;;;;;3.97;2.58;;;29.30;52.50;;;;;;5050327;28;20476;-79
2023/07/23 01:07:20;;;;;;;2.90;2.60;;;29.30;52.60;;;;;;5034636;28;20050;-79
2023/07/23 01:09:49;;;;;;;2.70;2.47;;;29.30;52.70;;;;;;5031550;28;20037;-79
2023/07/23 01:12:17;;;;;;;2.63;2.33;;;29.30;52.70;;;;;;5032739;28;20374;-79
2023/07/23 01:14:43;;;;;;;2.78;2.13;;;29.30;52.90;;;;;;5031207;28;20426;-79
2023/07/23 01:17:10;;;;;;;3.03;2.30;;;29.40;52.90;;;;;;5032552;28;20084;-78
2023/07/23 01:19:36;;;;;;;3.10;2.33;;;29.40;53.00;;;;;;5030924;28;20482;-79
2023/07/23 01:22:06;;;;;;;3.15;2.20;;;29.40;53.00;;;;;;5031119;28;20045;-79
2023/07/23 01:24:35;;;;;;;3.13;2.60;;;29.40;53.00;;;;;;5032636;28;20033;-78
2023/07/23 01:27:02;;;;;;;2.40;2.05;;;29.30;53.00;;;;;;5032575;28;20076;-79
2023/07/23 01:29:29;;;;;;;2.00;1.73;;;29.40;53.10;;;;;;5030894;28;20048;-79
2023/07/23 01:31:55;;;;;;;2.90;2.35;;;29.30;53.10;;;;;;5031123;28;20041;-79
2023/07/23 01:34:24;;;;;;;2.50;2.25;;;29.30;53.20;;;;;;5032362;28;20072;-79
2023/07/23 01:36:51;;;;;;;2.50;1.83;;;29.40;53.20;;;;;;5031066;28;20045;-79
2023/07/23 01:39:17;;;;;;;2.33;2.13;;;29.40;53.20;;;;;;5047244;28;20041;-79
2023/07/23 01:41:43;;;;;;;3.25;2.42;;;29.40;53.20;;;;;;5031937;28;20025;-79
2023/07/23 01:44:10;;;;;;;3.53;2.08;;;29.40;53.20;;;;;;5030515;28;20045;-78
2023/07/23 01:46:36;;;;;;;2.25;2.05;;;29.40;53.20;;;;;;5030570;28;20042;-79
2023/07/23 01:49:02;;;;;;;2.47;2.20;;;29.40;53.30;;;;;;5031726;28;20037;-79
2023/07/23 01:51:28;;;;;;;3.75;2.30;;;29.30;53.30;;;;;;5031807;28;20046;-79
2023/07/23 01:53:54;;;;;;;2.60;2.08;;;29.50;53.30;;;;;;5031642;28;20041;-79
2023/07/23 01:56:20;;;;;;;3.35;2.35;;;29.40;53.30;;;;;;5047241;28;20036;-79
2023/07/23 01:58:46;;;;;;;2.53;2.30;;;29.40;53.40;;;;;;5047043;28;20416;-79
2023/07/23 02:01:12;;;;;;;2.30;2.00;;;29.40;53.30;;;;;;5030679;28;20117;-79
2023/07/23 02:03:38;;;;;;;2.25;2.05;;;29.40;53.40;;;;;;5031662;28;20481;-79
2023/07/23 02:06:04;;;;;;;2.70;2.13;;;29.40;53.30;;;;;;5031934;28;20021;-79
2023/07/23 02:08:30;;;;;;;2.80;2.00;;;29.40;53.30;;;;;;5013867;28;20056;-79
2023/07/23 02:11:00;;;;;;;2.33;2.10;;;29.40;53.30;;;;;;5031663;28;20030;-79
2023/07/23 02:13:28;;;;;;;2.85;2.10;;;29.30;53.40;;;;;;5030459;28;20053;-79
2023/07/23 02:15:54;;;;;;;2.47;2.20;;;29.30;53.50;;;;;;5046990;28;20040;-79
2023/07/23 02:18:20;;;;;;;2.40;2.17;;;29.30;53.50;;;;;;5013972;28;20405;-79
2023/07/23 02:20:46;;;;;;;2.40;2.20;;;29.30;53.50;;;;;;5031634;28;20033;-79
2023/07/23 02:23:15;;;;;;;2.05;1.80;;;29.40;53.60;;;;;;5031529;28;20031;-79
2023/07/23 02:25:41;;;;;;;2.47;2.28;;;29.30;53.60;;;;;;5029909;28;20041;-79
2023/07/23 02:28:11;;;;;;;3.10;2.22;;;29.30;53.60;;;;;;5031452;28;20041;-79
2023/07/23 02:30:37;;;;;;;3.80;2.38;;;29.30;53.60;;;;;;5046749;28;20033;-79
2023/07/23 02:33:03;;;;;;;2.30;2.10;;;29.30;53.60;;;;;;5013950;28;20045;-79
2023/07/23 02:35:29;;;;;;;2.08;1.88;;;29.30;53.70;;;;;;5030240;28;20037;-79
2023/07/23 02:37:55;;;;;;;2.72;1.83;;;29.30;53.70;;;;;;5046660;28;20485;-79
2023/07/23 02:40:21;;;;;;;2.83;2.20;;;29.50;53.70;;;;;;5046486;28;20112;-79
2023/07/23 02:42:50;;;;;;;1.70;1.60;;;29.30;53.70;;;;;;5046925;28;20438;-79
2023/07/23 02:45:17;;;;;;;2.22;2.03;;;29.30;53.70;;;;;;5031330;28;20085;-79
2023/07/23 02:47:43;;;;;;;2.30;2.10;;;29.50;53.80;;;;;;5031227;28;20064;-79
2023/07/23 02:50:09;;;;;;;3.20;2.60;;;29.40;53.80;;;;;;5031102;28;20466;-79
2023/07/23 02:52:35;;;;;;;2.97;2.47;;;29.40;53.70;;;;;;5029895;28;20045;-79
2023/07/23 02:55:01;;;;;;;2.78;1.90;;;29.30;53.80;;;;;;5046495;28;20029;-79
2023/07/23 02:57:27;;;;;;;3.85;2.75;;;29.40;53.80;;;;;;5031330;28;20029;-79
2023/07/23 02:59:53;;;;;;;2.92;2.20;;;29.40;53.80;;;;;;5046459;28;20047;-79
2023/07/23 03:02:19;;;;;;;4.00;2.35;;;29.30;53.80;;;;;;5029933;28;20025;-79
2023/07/23 03:04:45;;;;;;;2.65;2.40;;;29.20;53.80;;;;;;5030062;28;20396;-79
2023/07/23 03:07:11;;;;;;;2.22;2.00;;;29.30;53.90;;;;;;5034936;28;20045;-79
2023/07/23 03:09:37;;;;;;;2.20;2.00;;;29.30;53.80;;;;;;5017218;28;20036;-79
2023/07/23 03:12:04;;;;;;;2.60;1.92;;;29.20;53.70;;;;;;5033969;28;20037;-77
2023/07/23 03:14:30;;;;;;;2.28;2.08;;;29.30;53.70;;;;;;5035345;28;20033;-79
2023/07/23 03:16:56;;;;;;;1.70;1.60;;;29.30;53.90;;;;;;5034956;28;20393;-79
2023/07/23 03:19:22;;;;;;;2.92;2.20;;;29.20;54.00;;;;;;5033336;28;20034;-79
2023/07/23 03:21:48;;;;;;;2.85;2.08;;;29.30;54.00;;;;;;5033452;28;20037;-79
2023/07/23 03:24:14;;;;;;;3.30;2.30;;;29.40;54.00;;;;;;5050151;28;20056;-79
2023/07/23 03:26:40;;;;;;;1.77;1.65;;;29.20;54.00;;;;;;5034937;28;20104;-79
2023/07/23 03:29:06;;;;;;;2.42;2.22;;;29.20;54.00;;;;;;5034312;28;20069;-79
2023/07/23 03:31:32;;;;;;;3.17;1.85;;;29.20;54.00;;;;;;5033425;28;20134;-79
2023/07/23 03:33:58;;;;;;;1.90;1.77;;;29.40;54.00;;;;;;5034954;28;20436;-79
2023/07/23 03:36:26;;;;;;;2.20;2.00;;;29.20;54.00;;;;;;5033213;28;20556;-79
2023/07/23 03:38:52;;;;;;;2.10;1.67;;;29.20;54.00;;;;;;5033378;28;20116;-79
2023/07/23 03:41:19;;;;;;;4.18;2.83;;;29.30;54.00;;;;;;5049957;28;20117;-79
2023/07/23 03:43:45;;;;;;;2.30;2.10;;;29.40;54.00;;;;;;5033075;28;20033;-79
2023/07/23 03:46:11;;;;;;;2.20;2.00;;;29.40;54.00;;;;;;5049682;28;20547;-79
2023/07/23 03:48:37;;;;;;;2.10;1.75;;;29.40;53.90;;;;;;5034089;28;20047;-79
2023/07/23 03:51:03;;;;;;;2.10;1.92;;;29.40;54.00;;;;;;5032890;28;20112;-79
2023/07/23 03:53:29;;;;;;;2.58;2.15;;;29.30;54.00;;;;;;5049619;28;20046;-79
2023/07/23 03:55:55;;;;;;;2.88;1.88;;;29.40;54.00;;;;;;5034132;28;20048;-79
2023/07/23 03:58:20;;;;;;;2.22;1.98;;;29.30;53.90;;;;;;5034061;28;20083;-79
2023/07/23 04:00:46;;;;;;;2.20;2.00;;;29.40;53.90;;;;;;5049354;28;20044;-77
2023/07/23 04:03:12;;;;;;;2.42;2.22;;;29.40;54.00;;;;;;5032534;28;20025;-79
2023/07/23 04:05:38;;;;;;;3.38;2.47;;;29.40;54.00;;;;;;5033978;28;20033;-79
2023/07/23 04:08:04;;;;;;;3.15;2.90;;;29.30;50.90;;;;;;5034604;28;20505;-82
2023/07/23 04:10:30;;;;;;;3.50;2.70;;;29.20;49.80;;;;;;5034115;28;20045;-81
2023/07/23 04:12:57;;;;;;;5.28;2.47;;;29.00;49.20;;;;;;5033759;28;20029;-81
2023/07/23 04:15:23;;;;;;;4.65;3.00;;;29.00;48.90;;;;;;5048958;28;20465;-80
2023/07/23 04:17:49;;;;;;;2.45;2.25;;;29.00;49.00;;;;;;5033760;28;20474;-80
2023/07/23 04:20:16;;;;;;;3.15;2.85;;;29.00;49.30;;;;;;5033299;28;20021;-80
2023/07/23 04:22:42;;;;;;;3.20;2.75;;;29.00;50.10;;;;;;5033586;28;20040;-80
2023/07/23 04:25:08;;;;;;;3.63;2.65;;;29.00;50.10;;;;;;5049243;28;20065;-82
2023/07/23 04:27:34;;;;;;;2.70;2.50;;;29.00;50.10;;;;;;5033145;28;20475;-80
2023/07/23 04:30:00;;;;;;;4.60;2.88;;;29.00;50.40;;;;;;5033629;28;20029;-80
2023/07/23 04:32:26;;;;;;;2.85;2.47;;;29.30;52.70;;;;;;5032379;28;20042;-77
2023/07/23 04:34:53;;;;;;;3.75;2.63;;;29.90;54.10;;;;;;5033190;28;20044;-76
2023/07/23 04:37:19;;;;;;;4.03;2.83;;;30.20;52.80;;;;;;5033327;28;20037;-76
2023/07/23 04:39:45;;;;;;;9.43;3.47;;;30.30;55.60;;;;;;5033070;28;20440;-78
2023/07/23 04:42:12;;;;;;;16.52;3.75;;;30.50;53.50;;;;;;5033153;28;20040;-77
2023/07/23 04:44:38;;;;;;;4.47;3.42;;;30.10;52.30;;;;;;5031789;28;20057;-78
2023/07/23 04:47:04;;;;;;;4.95;3.03;;;30.10;52.10;;;;;;5032977;28;20033;-77
2023/07/23 04:49:30;;;;;;;5.15;3.08;;;29.90;51.80;;;;;;5031586;28;20068;-77
2023/07/23 04:51:56;;;;;;;4.40;3.22;;;29.90;52.00;;;;;;5033175;28;20040;-77
2023/07/23 04:54:22;;;;;;;3.38;3.08;;;29.90;52.10;;;;;;5048413;28;20477;-76
2023/07/23 04:56:48;;;;;;;4.28;2.60;;;29.80;52.20;;;;;;5033094;28;20076;-76
2023/07/23 04:59:14;;;;;;;2.70;2.42;;;29.70;52.20;;;;;;5032883;28;20025;-76
2023/07/23 05:01:40;;;;;;;3.83;2.78;;;29.70;52.30;;;;;;5031488;28;20363;-76
2023/07/23 05:04:06;;;;;;;3.38;2.70;;;29.70;52.30;;;;;;5032688;28;20028;-77
2023/07/23 05:06:32;;;;;;;3.05;2.78;;;29.70;52.40;;;;;;5047013;28;20049;-76
2023/07/23 05:08:58;;;;;;;3.28;2.38;;;29.70;52.50;;;;;;5046620;28;20090;-75
2023/07/23 05:11:24;;;;;;;3.42;3.03;;;29.70;51.70;;;;;;5032600;28;20420;-75
2023/07/23 05:13:50;;;;;;;3.50;2.78;;;29.70;51.10;;;;;;5031133;28;20060;-75
2023/07/23 05:16:16;;;;;;;4.53;3.03;;;29.60;50.20;;;;;;5032467;28;20025;-74
2023/07/23 05:18:42;;;;;;;3.40;2.80;;;29.50;49.50;;;;;;5032381;28;20041;-76
2023/07/23 05:21:07;;;;;;;4.25;2.95;;;29.50;49.50;;;;;;5031385;28;20043;-77
2023/07/23 05:23:33;;;;;;;6.30;3.05;;;29.60;49.30;;;;;;5032434;28;20033;-79
2023/07/23 05:25:59;;;;;;;4.53;3.13;;;29.50;49.50;;;;;;5032562;28;20030;-80
2023/07/23 05:28:25;;;;;;;8.93;3.55;;;29.50;50.20;;;;;;5032048;28;20068;-79
2023/07/23 05:30:57;;;;;;;3.78;2.80;;;29.50;52.10;;;;;;5031935;28;20030;-79
2023/07/23 05:33:23;;;;;;;4.93;2.67;;;29.40;51.90;;;;;;5032156;28;20068;-79
2023/07/23 05:35:49;;;;;;;3.72;2.80;;;29.40;52.40;;;;;;5032902;28;20461;-76
2023/07/23 05:38:15;;;;;;;3.30;2.70;;;29.40;52.40;;;;;;5032322;28;20033;-76
2023/07/23 05:40:41;;;;;;;9.80;2.88;;;29.30;52.80;;;;;;5032084;28;20049;-77
2023/07/23 05:43:12;;;;;;;7.90;2.92;;;29.40;54.20;;;;;;5032287;28;20029;-79
2023/07/23 05:45:38;;;;;;;3.90;3.00;;;29.40;53.80;;;;;;5035778;28;20416;-76
2023/07/23 05:48:04;;;;;;;3.72;2.72;;;29.30;52.20;;;;;;5051795;28;20037;-76
2023/07/23 05:50:30;;;;;;;3.53;2.65;;;29.20;50.30;;;;;;5050425;28;20045;-76
2023/07/23 05:52:56;;;;;;;4.00;3.42;;;29.10;50.20;;;;;;5051578;28;20112;-77
2023/07/23 05:55:22;;;;;;;3.40;3.10;;;29.10;52.00;;;;;;5051821;28;20493;-79
2023/07/23 05:57:48;;;;;;;4.82;2.92;;;29.00;51.70;;;;;;5051906;28;20043;-79
2023/07/23 06:00:14;;;;;;;3.20;2.90;;;29.10;51.80;;;;;;5051878;28;20045;-77
2023/07/23 06:02:40;;;;;;;12.45;5.18;;;29.10;51.90;;;;;;5051862;28;20380;-78
2023/07/23 06:05:07;;;;;;;4.60;2.67;;;29.00;51.90;;;;;;5050685;28;20033;-76
2023/07/23 06:07:33;;;;;;;6.22;3.13;;;29.00;52.10;;;;;;5051462;28;20033;-76
2023/07/23 06:09:59;;;;;;;3.78;3.30;;;29.00;52.10;;;;;;5051328;28;20032;-76
2023/07/23 06:12:25;;;;;;;3.53;3.20;;;29.00;52.10;;;;;;5050278;28;20033;-76
2023/07/23 06:14:51;;;;;;;3.15;2.85;;;29.10;52.20;;;;;;5050973;28;20037;-76
2023/07/23 06:17:17;;;;;;;3.75;3.05;;;29.00;52.00;;;;;;5051419;28;20040;-75
2023/07/23 06:19:43;;;;;;;3.20;2.90;;;28.90;51.20;;;;;;5050235;28;20037;-74
2023/07/23 06:22:09;;;;;;;4.90;3.20;;;29.00;51.60;;;;;;5032552;28;20037;-71
2023/07/23 06:24:35;;;;;;;3.80;3.25;;;28.90;51.10;;;;;;5051085;28;20051;-76
2023/07/23 06:27:01;;;;;;;3.03;2.67;;;29.00;51.40;;;;;;5051126;28;20519;-75
2023/07/23 06:29:26;;;;;;;6.38;3.80;;;29.10;51.40;;;;;;5050957;28;20065;-76
2023/07/23 06:31:52;;;;;;;3.55;3.13;;;29.00;51.30;;;;;;5051912;28;20029;-84
2023/07/23 06:34:19;;;;;;;6.57;3.75;;;29.00;51.30;;;;;;5051932;28;20115;-78
2023/07/23 06:36:46;;;;;;;4.18;2.90;;;29.10;51.40;;;;;;5050610;28;20029;-84
2023/07/23 06:39:13;;;;;;;4.30;3.80;;;29.10;51.50;;;;;;5052161;28;20033;-81
2023/07/23 06:41:39;;;;;;;3.10;2.65;;;29.10;51.60;;;;;;5055159;28;20082;-84
2023/07/23 06:44:06;;;;;;;4.18;3.28;;;29.10;51.60;;;;;;5054525;28;20140;-80
2023/07/23 06:46:32;;;;;;;5.03;3.17;;;29.00;51.70;;;;;;5055321;28;20057;-80
2023/07/23 06:48:58;;;;;;;5.03;3.60;;;29.00;51.80;;;;;;5055778;28;20040;-80
2023/07/23 06:51:25;;;;;;;2.83;2.60;;;29.10;51.90;;;;;;5055520;28;20064;-80
2023/07/23 06:53:51;;;;;;;3.72;2.90;;;29.10;52.00;;;;;;5054601;28;20404;-81
2023/07/23 06:56:19;;;;;;;3.78;2.80;;;29.10;51.80;;;;;;5055846;28;20085;-81
2023/07/23 06:58:46;;;;;;;6.50;3.28;;;29.10;51.90;;;;;;5055400;28;20101;-81
2023/07/23 07:01:12;;;;;;;5.95;3.67;;;29.00;52.00;;;;;;5055525;28;20033;-78
2023/07/23 07:03:38;;;;;;;4.40;3.20;;;29.10;52.10;;;;;;5056262;28;20396;-83
2023/07/23 07:06:04;;;;;;;3.50;3.20;;;29.20;52.20;;;;;;5055520;28;20037;-81
2023/07/23 07:08:30;;;;;;;5.80;3.35;;;29.10;52.30;;;;;;5055654;28;20021;-80
2023/07/23 07:11:01;;;;;;;3.95;3.33;;;29.10;52.40;;;;;;5054277;28;20104;-78
2023/07/23 07:13:28;;;;;;;7.38;3.20;;;29.20;52.40;;;;;;5055176;28;20041;-80
2023/07/23 07:15:54;;;;;;;4.15;3.53;;;29.20;52.30;;;;;;5035111;28;20040;-78
2023/07/23 07:18:20;;;;;;;3.75;3.05;;;29.10;52.20;;;;;;5044781;28;20045;-78
2023/07/23 07:20:58;;;;;;;3.67;2.72;;;29.30;52.20;;;;;;5054754;28;20345;-82
2023/07/23 07:23:28;;;;;;;5.50;3.08;;;29.30;52.20;;;;;;5053832;28;20041;-78
2023/07/23 07:25:55;;;;;;;5.95;3.65;;;29.20;52.40;;;;;;5052418;28;20045;-81
2023/07/23 07:28:22;;;;;;;5.70;3.65;;;29.40;52.50;;;;;;5061693;28;20033;-81
2023/07/23 07:30:48;;;;;;;3.40;3.10;;;29.20;52.50;;;;;;5061233;28;20037;-80
2023/07/23 07:33:14;;;;;;;3.50;2.85;;;29.10;52.50;;;;;;5034913;28;20057;-77
2023/07/23 07:35:40;;;;;;;7.28;2.92;;;29.20;52.10;;;;;;5034819;28;20040;-77
2023/07/23 07:38:06;;;;;;;4.40;3.72;;;29.20;52.10;;;;;;5034629;28;20112;-77
2023/07/23 07:40:32;;;;;;;3.25;2.92;;;29.20;52.00;;;;;;5031824;28;20495;-77
2023/07/23 07:42:58;;;;;;;6.63;3.45;;;29.30;52.00;;;;;;5032055;28;20111;-77
2023/07/23 07:45:24;;;;;;;3.08;2.78;;;29.20;52.00;;;;;;5031625;28;20084;-78
2023/07/23 07:47:50;;;;;;;5.72;2.70;;;29.20;52.00;;;;;;5032058;28;20608;-77
2023/07/23 07:50:16;;;;;;;7.97;3.67;;;29.40;51.60;;;;;;5031408;28;20496;-77
2023/07/23 07:52:42;;;;;;;4.70;3.08;;;29.30;51.20;;;;;;5031133;28;20148;-77
2023/07/23 07:55:08;;;;;;;3.50;3.20;;;29.40;50.70;;;;;;5031631;28;20111;-77
2023/07/23 07:57:35;;;;;;;6.57;3.22;;;29.20;50.30;;;;;;5031700;28;20075;-77
2023/07/23 08:00:06;;;;;;;5.35;2.80;;;29.30;49.80;;;;;;5031695;28;20064;-77
2023/07/23 08:02:37;;;;;;;4.68;3.03;;;29.30;49.40;;;;;;5031402;28;20047;-76
2023/07/23 08:05:03;;;;;;;4.05;2.60;;;29.20;48.90;;;;;;5031416;28;20052;-77
2023/07/23 08:07:30;;;;;;;4.50;2.72;;;29.30;48.60;;;;;;5031344;28;20041;-77
2023/07/23 08:09:59;;;;;;;3.50;2.88;;;29.30;48.30;;;;;;5031578;28;20037;-77
2023/07/23 08:12:26;;;;;;;4.60;2.80;;;29.40;47.90;;;;;;5032354;28;20087;-77
2023/07/23 08:14:53;;;;;;;2.83;2.45;;;29.20;47.60;;;;;;5033862;28;20037;-77
2023/07/23 08:17:20;;;;;;;5.03;3.05;;;29.30;47.30;;;;;;5032429;28;20375;-77
2023/07/23 08:19:46;;;;;;;4.00;3.25;;;29.20;47.00;;;;;;5049076;28;20167;-77
2023/07/23 08:22:13;;;;;;;2.83;2.63;;;29.20;46.70;;;;;;5033839;28;20034;-77
2023/07/23 08:24:39;;;;;;;2.47;2.28;;;29.20;46.50;;;;;;5033539;28;20109;-77
2023/07/23 08:27:07;;;;;;;3.03;2.67;;;29.30;46.20;;;;;;5033547;28;20040;-77
2023/07/23 08:29:35;;;;;;;2.97;2.72;;;29.20;45.90;;;;;;5033453;28;20037;-77
2023/07/23 08:32:02;;;;;;;3.17;2.85;;;29.30;45.70;;;;;;5033558;28;20048;-77
2023/07/23 08:34:28;;;;;;;2.92;2.63;;;29.30;45.50;;;;;;5033220;28;20481;-77
2023/07/23 08:36:54;;;;;;;4.45;2.70;;;29.40;45.20;;;;;;5033608;28;20025;-77
2023/07/23 08:39:21;;;;;;;5.28;2.58;;;29.20;45.10;;;;;;5033392;28;20084;-77
2023/07/23 08:42:31;;;;;;;4.95;2.88;;;29.10;45.00;;;;;;5032920;28;20037;-77
2023/07/23 08:45:06;;;;;;;2.38;1.98;;;29.20;44.90;;;;;;5032939;28;20063;-77
2023/07/23 08:47:37;;;;;;;3.20;2.85;;;29.20;44.70;;;;;;5033183;28;20048;-77
2023/07/23 08:50:03;;;;;;;3.45;3.05;;;29.20;44.50;;;;;;5033175;28;20051;-77
2023/07/23 08:52:32;;;;;;;2.85;2.42;;;29.10;44.50;;;;;;5032926;28;20171;-77
2023/07/23 08:54:58;;;;;;;3.08;2.60;;;29.10;44.20;;;;;;5032970;28;20065;-77
2023/07/23 08:57:24;;;;;;;3.88;2.50;;;29.00;44.10;;;;;;5033009;28;20045;-77
2023/07/23 08:59:50;;;;;;;4.55;2.47;;;29.00;43.80;;;;;;5031617;28;20033;-77
2023/07/23 09:02:19;;;;;;;2.65;2.35;;;29.10;43.70;;;;;;5032575;28;20036;-77
2023/07/23 09:04:45;;;;;;;3.35;2.45;;;29.00;43.50;;;;;;5032389;28;20087;-77
2023/07/23 09:07:12;;;;;;;3.00;2.70;;;28.80;43.00;;;;;;5031767;28;20500;-77
2023/07/23 09:09:38;;;;;;;2.63;2.42;;;28.90;42.90;;;;;;5032571;28;20041;-77
2023/07/23 09:12:04;;;;;;;3.42;3.00;;;28.90;43.30;;;;;;5032358;28;20041;-77
2023/07/23 09:14:43;;;;;;;2.90;2.33;;;28.90;43.40;;;;;;5031502;28;20025;-77
2023/07/23 09:17:17;;;;;;;2.60;2.25;;;29.00;43.50;;;;;;5032660;28;20072;-77
2023/07/23 09:19:43;;;;;;;3.85;3.30;;;28.90;42.80;;;;;;5032360;28;20033;-77
2023/07/23 09:22:09;;;;;;;6.13;3.35;;;28.90;42.80;;;;;;5047806;28;20168;-77
2023/07/23 09:24:35;;;;;;;3.67;2.58;;;28.90;42.50;;;;;;5032434;28;20108;-77
2023/07/23 09:27:02;;;;;;;2.72;2.40;;;28.90;42.40;;;;;;5032753;28;20029;-77
2023/07/23 09:29:41;;;;;;;3.05;2.25;;;29.00;42.90;;;;;;5032312;28;20037;-76
2023/07/23 09:32:33;;;;;;;4.10;2.33;;;29.00;42.70;;;;;;5031952;28;20414;-77
2023/07/23 09:34:59;;;;;;;6.60;2.67;;;29.00;42.60;;;;;;5013214;28;20045;-77
2023/07/23 09:37:29;;;;;;;2.22;2.03;;;29.00;42.50;;;;;;5015108;28;20420;-75
2023/07/23 09:39:58;;;;;;;2.30;2.05;;;29.00;42.50;;;;;;5029824;28;20048;-77
2023/07/23 09:42:24;;;;;;;2.47;2.25;;;29.00;42.40;;;;;;5029678;28;20553;-77
2023/07/23 09:44:51;;;;;;;2.38;2.15;;;28.90;41.70;;;;;;5029377;28;20088;-76
2023/07/23 09:47:27;;;;;;;2.33;2.10;;;28.90;41.80;;;;;;5029653;28;20069;-76
2023/07/23 09:49:53;;;;;;;2.97;2.38;;;28.90;41.80;;;;;;5029526;28;20049;-77
2023/07/23 09:52:32;;;;;;;4.68;2.13;;;28.90;41.40;;;;;;5029384;28;20069;-77
2023/07/23 09:54:58;;;;;;;2.35;2.15;;;28.80;41.20;;;;;;5029495;28;20049;-77
2023/07/23 09:57:24;;;;;;;2.13;1.90;;;28.80;41.00;;;;;;5013053;28;20145;-76
2023/07/23 09:59:52;;;;;;;2.88;2.53;;;28.70;41.10;;;;;;5029338;28;20188;-77
2023/07/23 10:02:20;;;;;;;2.60;1.95;;;28.70;41.10;;;;;;5012846;28;20038;-77
2023/07/23 10:04:47;;;;;;;2.10;1.70;;;28.70;41.10;;;;;;5029421;28;20354;-77
2023/07/23 10:07:14;;;;;;;1.90;1.80;;;28.50;41.10;;;;;;5012786;28;20475;-77
2023/07/23 10:09:40;;;;;;;2.33;2.10;;;28.60;41.00;;;;;;5029239;28;20065;-77
2023/07/23 10:12:06;;;;;;;3.45;2.22;;;28.60;41.10;;;;;;5022487;28;20757;-76
2023/07/23 10:14:32;;;;;;;2.05;1.80;;;28.40;41.00;;;;;;5030025;28;20070;-76
2023/07/23 10:17:00;;;;;;;2.25;2.05;;;28.50;41.60;;;;;;5046809;28;20041;-77
2023/07/23 10:19:27;;;;;;;2.55;2.20;;;28.70;41.60;;;;;;5031685;28;20059;-76
2023/07/23 10:21:53;;;;;;;2.25;2.00;;;28.50;41.40;;;;;;5031108;28;20025;-76
2023/07/23 10:24:19;;;;;;;1.85;1.75;;;28.60;41.40;;;;;;5031387;28;20389;-77
2023/07/23 10:26:48;;;;;;;1.80;1.60;;;28.60;41.50;;;;;;5030360;28;20042;-76
2023/07/23 10:29:18;;;;;;;1.80;1.70;;;28.60;41.20;;;;;;5031529;28;20044;-76
2023/07/23 10:31:45;;;;;;;2.65;2.20;;;28.60;41.30;;;;;;5030288;28;20034;-77
2023/07/23 10:34:26;;;;;;;2.30;2.10;;;28.60;41.20;;;;;;5046669;28;20133;-77
2023/07/23 10:37:18;;;;;;;1.90;1.80;;;28.50;41.30;;;;;;5031427;28;20033;-76
2023/07/23 10:39:47;;;;;;;2.08;1.88;;;28.60;41.30;;;;;;5030224;28;20047;-76
2023/07/23 10:42:28;;;;;;;2.22;2.03;;;28.60;41.10;;;;;;5031117;28;20524;-77
2023/07/23 10:45:22;;;;;;;2.50;2.30;;;28.60;40.90;;;;;;5031186;28;20061;-77
2023/07/23 10:47:58;;;;;;;2.70;2.17;;;28.60;40.90;;;;;;5046672;28;20045;-76
2023/07/23 10:50:27;;;;;;;1.65;1.50;;;28.60;40.40;;;;;;5031201;28;20034;-76
2023/07/23 10:53:04;;;;;;;2.50;2.13;;;28.60;40.10;;;;;;5031256;28;20077;-77
2023/07/23 10:55:46;;;;;;;1.92;1.83;;;28.60;40.10;;;;;;5031245;28;20365;-77
2023/07/23 10:58:20;;;;;;;2.05;1.85;;;28.60;40.00;;;;;;5029890;28;20652;-76
2023/07/23 11:00:57;;;;;;;1.85;1.70;;;28.50;40.10;;;;;;5031130;28;20042;-76
2023/07/23 11:03:25;;;;;;;1.90;1.60;;;28.40;40.10;;;;;;5031211;28;20044;-76
2023/07/23 11:05:52;;;;;;;2.63;2.28;;;28.40;40.20;;;;;;5046649;28;20091;-77
2023/07/23 11:08:24;;;;;;;2.10;1.90;;;28.30;40.20;;;;;;5031066;28;20037;-77
2023/07/23 11:10:56;;;;;;;2.70;2.13;;;28.30;40.30;;;;;;5030837;28;20044;-76
2023/07/23 11:13:24;;;;;;;1.80;1.58;;;28.20;40.30;;;;;;5030872;28;20575;-77
2023/07/23 11:15:50;;;;;;;2.40;1.95;;;28.20;40.10;;;;;;5031146;28;20068;-77
2023/07/23 11:18:18;;;;;;;3.10;2.20;;;28.30;40.20;;;;;;5030847;28;20386;-77
2023/07/23 11:20:49;;;;;;;2.17;1.98;;;28.30;40.40;;;;;;5029835;28;20033;-77
2023/07/23 11:23:17;;;;;;;3.30;2.55;;;28.30;40.40;;;;;;5030738;28;20029;-77
2023/07/23 11:25:44;;;;;;;2.20;1.80;;;28.40;40.30;;;;;;5031095;28;20038;-77
2023/07/23 11:28:10;;;;;;;3.50;2.30;;;28.30;40.40;;;;;;5049924;28;20549;-77
2023/07/23 11:30:37;;;;;;;2.13;1.88;;;28.30;40.40;;;;;;5034451;28;20044;-77
2023/07/23 11:33:03;;;;;;;2.13;1.58;;;28.40;40.50;;;;;;5049768;28;20482;-77
2023/07/23 11:35:31;;;;;;;2.70;1.90;;;28.30;40.30;;;;;;5034367;28;20044;-76
2023/07/23 11:38:03;;;;;;;4.00;1.83;;;28.40;40.20;;;;;;5034272;28;20036;-77
2023/07/23 11:40:29;;;;;;;;;;;28.40;40.10;;;;;;5034794;28;20040;-77
2023/07/23 11:42:55;;;;;;;1.70;1.60;;;28.40;40.10;;;;;;5034239;28;19913;-76
2023/07/23 11:45:22;;;;;;;1.70;1.60;;;28.30;40.10;;;;;;5034010;28;20053;-77
2023/07/23 11:47:53;;;;;;;2.42;1.50;;;28.50;40.10;;;;;;5051524;28;20056;-77
2023/07/23 11:50:20;;;;;;;3.05;2.15;;;28.30;40.00;;;;;;5051582;28;20468;-77
2023/07/23 11:52:50;;;;;;;1.92;1.73;;;28.20;40.10;;;;;;5051471;28;20480;-77
2023/07/23 11:55:26;;;;;;;3.45;1.90;;;28.50;39.60;;;;;;5051721;28;20048;-77
2023/07/23 11:57:54;;;;;;;2.10;1.50;;;28.20;39.20;;;;;;5051443;28;20040;-77
2023/07/23 12:00:27;;;;;;;1.95;1.80;;;28.20;39.20;;;;;;5051634;28;20117;-77
2023/07/23 12:02:54;;;;;;;1.40;1.30;;;28.20;39.30;;;;;;5051024;28;20116;-77
2023/07/23 12:05:20;;;;;;;1.55;1.45;;;28.20;39.40;;;;;;5051162;28;20090;-77
2023/07/23 12:07:46;;;;;;;2.88;1.70;;;28.10;39.40;;;;;;5034570;28;20167;-77
2023/07/23 12:10:15;;;;;;;1.55;1.45;;;28.00;39.40;;;;;;5051088;28;20473;-77
2023/07/23 12:12:46;;;;;;;1.73;1.63;;;28.10;39.50;;;;;;5050894;28;20188;-77
2023/07/23 12:15:16;;;;;;;1.85;1.75;;;28.00;39.60;;;;;;5017943;28;20028;-77
2023/07/23 12:17:43;;;;;;;2.75;2.42;;;28.00;39.60;;;;;;5050323;28;20088;-77
2023/07/23 12:20:14;;;;;;;2.53;2.25;;;27.90;39.10;;;;;;5033748;28;20091;-76
2023/07/23 12:22:54;;;;;;;2.92;2.47;;;28.00;39.50;;;;;;5032338;28;20040;-77
2023/07/23 12:25:21;;;;;;;2.22;1.90;;;28.00;39.40;;;;;;5033756;28;20083;-77
2023/07/23 12:27:48;;;;;;;2.13;1.65;;;27.90;38.80;;;;;;5033498;28;20044;-77
2023/07/23 12:30:14;;;;;;;2.20;1.63;;;28.00;39.30;;;;;;5033640;28;20124;-77
2023/07/23 12:32:40;;;;;;;1.63;1.52;;;28.00;39.30;;;;;;5033462;28;20080;-77
2023/07/23 12:35:07;;;;;;;1.50;1.40;;;28.10;39.30;;;;;;5033414;28;20083;-77
2023/07/23 12:37:36;;;;;;;1.98;1.67;;;28.10;39.20;;;;;;5030272;28;20045;-76
2023/07/23 12:40:04;;;;;;;2.00;1.80;;;28.00;39.40;;;;;;5033137;28;20057;-77
2023/07/23 12:42:34;;;;;;;1.33;1.23;;;28.10;39.60;;;;;;5033451;28;20083;-77
2023/07/23 12:45:02;;;;;;;2.63;2.28;;;28.20;39.50;;;;;;5033256;28;20061;-77
2023/07/23 12:47:28;;;;;;;2.63;2.15;;;28.00;39.60;;;;;;5049010;28;20087;-77
2023/07/23 12:49:58;;;;;;;2.03;1.63;;;28.10;39.60;;;;;;5033232;28;20692;-77